Flight Track Log - Related Links

Times and Time Zones

All times are in EDT time to prevent confusion due to time zone crossing. See the CSN6379 flight status page for this flight to view local times or setup timezone preferences in your user account.

Time Position Orientation Groundspeed Altitude Reporting Facility
EDT Latitude Longitude Course Direction KTS MPH feet Rate Location/Type
Mon 08:53:00 PM 43.1821 124.8933 197° South  Level Estimated
Mon 08:54:00 PM 43.0915 124.8559 197° South  Level Estimated
Mon 08:55:00 PM 43.0009 124.8185 197° South  Level Estimated
Mon 08:56:00 PM 42.9103 124.7812 197° South  Level Estimated
Mon 08:57:00 PM 42.8196 124.7440 197° South  Level Estimated
Mon 08:58:00 PM 42.7290 124.7069 197° South  Level Estimated
Mon 08:59:00 PM 42.6383 124.6700 197° South  Level Estimated
Mon 09:00:00 PM 42.5476 124.6331 197° South  Level Estimated
Mon 09:01:00 PM 42.4570 124.5964 197° South  Level Estimated
Mon 09:02:00 PM 42.3662 124.5598 197° South  Level Estimated
Mon 09:03:00 PM 42.2755 124.5232 197° South  Level Estimated
Mon 09:04:00 PM 42.1848 124.4868 197° South  Level Estimated
Mon 09:05:00 PM 42.0941 124.4505 197° South  Level Estimated
Mon 09:06:00 PM 42.0033 124.4143 197° South  Level Estimated
Mon 09:07:00 PM 41.9126 124.3782 196° South  Level Estimated
Mon 09:08:00 PM 41.8218 124.3422 196° South  Level Estimated
Mon 09:09:00 PM 41.7310 124.3063 196° South  Level Estimated
Mon 09:10:00 PM 41.6402 124.2705 196° South  Level Estimated
Mon 09:11:00 PM 41.5494 124.2348 196° South  Level Estimated
Mon 09:12:00 PM 41.4586 124.1992 196° South  Level Estimated
Mon 09:13:00 PM 41.3678 124.1637 196° South  Level Estimated
Mon 09:14:00 PM 41.2769 124.1283 196° South  Level Estimated
Mon 09:15:00 PM 41.1861 124.0929 196° South  Level Estimated
Mon 09:16:00 PM 41.0952 124.0577 196° South  Level Estimated
Mon 09:17:00 PM 41.0043 124.0226 196° South  Level Estimated
Mon 09:18:00 PM 40.9135 123.9876 196° South  Level Estimated
Mon 09:19:00 PM 40.8226 123.9527 196° South  Level Estimated
Mon 09:20:00 PM 40.7317 123.9179 196° South  Level Estimated
Mon 09:21:00 PM 40.6408 123.8831 196° South  Level Estimated
Mon 09:22:00 PM 40.5498 123.8485 196° South  Level Estimated
Mon 09:23:00 PM 40.4589 123.8140 196° South  Level Estimated
Mon 09:24:00 PM 40.3680 123.7795 196° South  Level Estimated
Mon 09:25:00 PM 40.2770 123.7452 196° South  Level Estimated
Mon 09:26:00 PM 40.1860 123.7109 196° South  Level Estimated
Mon 09:27:00 PM 40.0951 123.6767 196° South  Level Estimated
Mon 09:28:00 PM 40.0041 123.6427 196° South  Level Estimated
Mon 09:29:00 PM 39.9131 123.6087 196° South  Level Estimated
Mon 09:30:00 PM 39.8221 123.5748 196° South  Level Estimated
Mon 09:31:00 PM 39.7311 123.5410 196° South  Level Estimated
Mon 09:32:00 PM 39.6400 123.5072 196° South  Level Estimated
Mon 09:33:00 PM 39.5490 123.4736 196° South  Level Estimated
Mon 09:34:00 PM 39.4580 123.4401 196° South  Level Estimated
Mon 09:35:00 PM 39.3669 123.4066 196° South  Level Estimated
Mon 09:36:00 PM 39.2759 123.3733 196° South  Level Estimated
Mon 09:37:00 PM 39.1848 123.3400 196° South  Level Estimated
Mon 09:38:00 PM 39.0937 123.3068 196° South  Level Estimated
Mon 09:39:00 PM 39.0026 123.2737 196° South  Level Estimated
Mon 09:40:00 PM 38.9115 123.2407 196° South  Level Estimated
Mon 09:41:00 PM 38.8204 123.2077 196° South  Level Estimated
Mon 09:42:00 PM 38.7293 123.1749 196° South  Level Estimated
Mon 09:43:00 PM 38.6382 123.1421 196° South  Level Estimated
Mon 09:44:00 PM 38.5470 123.1094 196° South  Level Estimated
Mon 09:45:00 PM 38.4559 123.0768 196° South  Level Estimated
Mon 09:46:00 PM 38.3647 123.0443 196° South  Level Estimated
Mon 09:47:00 PM 38.2736 123.0118 196° South  Level Estimated
Mon 09:48:00 PM 38.1824 122.9795 196° South  Level Estimated
Mon 09:49:00 PM 38.0912 122.9472 196° South  Level Estimated
Mon 09:50:00 PM 38.0000 122.9150 196° South  Level Estimated
Mon 09:51:00 PM 37.9088 122.8829 196° South  Level Estimated
Mon 09:52:00 PM 37.8176 122.8509 196° South  Level Estimated
Mon 09:53:00 PM 37.7264 122.8189 195° South  Level Estimated
Mon 09:54:00 PM 37.6352 122.7870 195° South  Level Estimated
Mon 09:55:00 PM 37.5439 122.7552 195° South  Level Estimated
Mon 09:56:00 PM 37.4527 122.7235 195° South  Level Estimated
Mon 09:57:00 PM 37.3615 122.6918 195° South  Level Estimated
Mon 09:58:00 PM 37.2702 122.6603 195° South  Level Estimated
Mon 09:59:00 PM 37.1789 122.6288 195° South  Level Estimated
Mon 10:00:00 PM 37.0877 122.5974 195° South  Level Estimated
Mon 10:01:00 PM 36.9964 122.5660 195° South  Level Estimated
Mon 10:02:00 PM 36.9051 122.5347 195° South  Level Estimated
Mon 10:03:00 PM 36.8138 122.5035 195° South  Level Estimated
Mon 10:04:00 PM 36.7225 122.4724 195° South  Level Estimated
Mon 10:05:00 PM 36.6311 122.4414 195° South  Level Estimated
Mon 10:06:00 PM 36.5398 122.4104 195° South  Level Estimated
Mon 10:07:00 PM 36.4485 122.3795 195° South  Level Estimated
Mon 10:08:00 PM 36.3572 122.3487 195° South  Level Estimated
Mon 10:09:00 PM 36.2658 122.3179 195° South  Level Estimated
Mon 10:10:00 PM 36.1744 122.2873 195° South  Level Estimated
Mon 10:11:00 PM 36.0831 122.2567 195° South  Level Estimated
Mon 10:12:00 PM 35.9917 122.2261 195° South  Level Estimated
Mon 10:13:00 PM 35.9003 122.1956 195° South  Level Estimated
Mon 10:14:00 PM 35.8089 122.1652 195° South  Level Estimated
Mon 10:15:00 PM 35.7175 122.1349 195° South  Level Estimated
Mon 10:16:00 PM 35.6261 122.1047 195° South  Level Estimated
Mon 10:17:00 PM 35.5347 122.0745 195° South  Level Estimated
Mon 10:18:00 PM 35.4433 122.0443 195° South  Level Estimated
Mon 10:19:00 PM 35.3519 122.0143 195° South  Level Estimated
Mon 10:20:00 PM 35.2605 121.9843 195° South  Level Estimated
Mon 10:21:00 PM 35.1690 121.9544 195° South  Level Estimated
Mon 10:22:00 PM 35.0776 121.9246 195° South  Level Estimated
Mon 10:23:00 PM 34.9861 121.8948 195° South  Level Estimated
Mon 10:24:00 PM 34.8947 121.8651 195° South  Level Estimated
Mon 10:25:00 PM 34.8032 121.8354 195° South  Level Estimated
Mon 10:26:00 PM 34.7117 121.8058 195° South  Level Estimated
Mon 10:27:00 PM 34.6202 121.7763 195° South  Level Estimated
Mon 10:28:00 PM 34.5288 121.7468 195° South  Level Estimated
Mon 10:29:00 PM 34.4372 121.7175 195° South  Level Estimated
Mon 10:30:00 PM 34.3457 121.6881 195° South  Level Estimated
Mon 10:31:00 PM 34.2542 121.6589 195° South  Level Estimated
Mon 10:32:00 PM 34.1627 121.6297 195° South  Level Estimated
Mon 10:33:00 PM 34.0712 121.6005 195° South  Level Estimated
Mon 10:34:00 PM 33.9797 121.5715 195° South  Level Estimated
Mon 10:35:00 PM 33.8881 121.5424 195° South  Level Estimated
Mon 10:36:00 PM 33.7966 121.5135 195° South  Level Estimated
Mon 10:37:00 PM 33.7050 121.4846 195° South  Level Estimated
Mon 10:38:00 PM 33.6135 121.4558 195° South  Level Estimated
Mon 10:39:00 PM 33.5219 121.4270 195° South  Level Estimated
Mon 10:40:00 PM 33.4303 121.3983 195° South  Level Estimated
Mon 10:41:00 PM 33.3387 121.3697 195° South  Level Estimated
Mon 10:42:00 PM 33.2472 121.3411 195° South  Level Estimated
Mon 10:43:00 PM 33.1556 121.3126 195° South  Level Estimated
Mon 10:44:00 PM 33.0640 121.2841 195° South  Level Estimated
Mon 10:45:00 PM 32.9724 121.2557 195° South  Level Estimated
Mon 10:46:00 PM 32.8808 121.2274 195° South  Level Estimated
Mon 10:47:00 PM 32.7891 121.1991 195° South  Level Estimated
Mon 10:48:00 PM 32.6975 121.1709 195° South  Level Estimated
Mon 10:49:00 PM 32.6059 121.1427 195° South  Level Estimated
Mon 10:50:00 PM 32.5143 121.1146 195° South  Level Estimated
Mon 10:51:00 PM 32.4226 121.0865 194° South  Level Estimated
Mon 10:52:00 PM 32.3310 121.0585 194° South  Level Estimated
Mon 10:53:00 PM 32.2393 121.0306 194° South  Level Estimated
Mon 10:54:00 PM 32.1477 121.0027 194° South  Level Estimated
Mon 10:55:00 PM 32.0560 120.9749 194° South  Level Estimated
Mon 10:56:00 PM 31.9643 120.9471 194° South  Level Estimated
Mon 10:57:00 PM 31.8726 120.9194 194° South  Level Estimated
Mon 10:58:00 PM 31.7809 120.8917 194° South  Level Estimated
Mon 10:59:00 PM 31.6893 120.8641 194° South  Level Estimated
Mon 11:00:00 PM 31.5975 120.8366 194° South  Level Estimated
Mon 11:01:00 PM 31.5058 120.8091 194° South  Level Estimated
Mon 11:02:00 PM 31.4141 120.7816 194° South  Level Estimated
Mon 11:03:00 PM 31.3224 120.7543 194° South  Level Estimated
Mon 11:04:00 PM 31.2307 120.7269 194° South  Level Estimated
Mon 11:05:00 PM 31.1390 120.6996 194° South  Level Estimated
Mon 11:06:00 PM 31.0473 120.6724 194° South  Level Estimated
Mon 11:07:00 PM 30.9555 120.6452 194° South  Level Estimated
Mon 11:08:00 PM 30.8638 120.6181 194° South  Level Estimated
Mon 11:09:00 PM 30.7720 120.5910 194° South  Level Estimated
Mon 11:10:00 PM 30.6803 120.5640 194° South  Level Estimated
Mon 11:11:00 PM 30.5885 120.5370 194° South  Level Estimated
Mon 11:12:00 PM 30.4967 120.5101 194° South  Level Estimated
Mon 11:13:00 PM 30.4050 120.4832 194° South  Level Estimated
Mon 11:14:00 PM 30.3132 120.4564 194° South  Level Estimated
Mon 11:15:00 PM 30.2283 120.4317 194° South  Level Estimated
Mon 11:16:00 PM 30.2283 120.4317 North  Level Estimated
Mon 11:17:00 PM 30.2283 120.4317 North  Level Estimated
Mon 11:18:00 PM 30.2283 120.4317 North  Level Estimated
Mon 11:19:00 PM 30.2283 120.4317 North  Level Estimated
Mon 11:20:00 PM 30.2283 120.4317 North  Level Estimated
Mon 11:21:00 PM 30.2283 120.4317 North  Level Estimated

Login

Don't have an account? Register now (free) for customized features, flight alerts, and more!